Time;durP1;ratioP1;P1;durP2;ratioP2;P2;SDS_P1;SDS_P2;PMS_P1;PMS_P2;Temp;Humidity;BMP_temperature;BMP_pressure;BME280_temperature;BME280_humidity;BME280_pressure;Samples;Min_cycle;Max_cycle;Signal;HPM_P1;HPM_P2
2022/09/15 00:00:02;;;;;;;4.03;1.60;;;14.30;99.90;;;;;;5049456;28;20459;-71
2022/09/15 00:03:27;;;;;;;;;;;;;;;;;;;;;
2022/09/15 00:06:38;;;;;;;2.70;2.07;;;14.40;99.90;;;;;;5043976;28;20462;-71
2022/09/15 00:09:38;;;;;;;2.50;1.90;;;14.40;99.90;;;;;;5050379;28;20446;-71
2022/09/15 00:12:45;;;;;;;4.20;2.40;;;14.40;99.90;;;;;;5047778;28;20573;-71
2022/09/15 00:15:49;;;;;;;2.80;2.00;;;14.50;99.90;;;;;;5044120;28;20496;-71
2022/09/15 00:18:57;;;;;;;2.83;1.80;;;14.50;99.90;;;;;;5045042;28;20461;-71
2022/09/15 00:22:14;;;;;;;1.83;1.53;;;14.50;99.90;;;;;;5045555;28;20481;-71
2022/09/15 00:25:21;;;;;;;2.23;1.80;;;14.50;99.90;;;;;;5048959;28;20477;-70
2022/09/15 00:28:37;;;;;;;3.03;2.10;;;14.60;99.90;;;;;;5042254;28;20442;-71
2022/09/15 00:31:46;;;;;;;4.63;2.07;;;14.50;99.90;;;;;;5054349;28;20459;-71
2022/09/15 00:38:22;;;;;;;2.13;1.93;;;14.60;99.90;;;;;;5049000;28;20561;-71
2022/09/15 00:41:39;;;;;;;3.10;2.20;;;14.50;99.90;;;;;;5050284;28;20525;-71
2022/09/15 00:45:05;;;;;;;3.63;2.10;;;14.50;99.90;;;;;;5039133;28;20485;-71
2022/09/15 00:51:31;;;;;;;3.10;2.10;;;14.50;99.90;;;;;;5030101;28;20482;-71
2022/09/15 00:54:59;;;;;;;2.27;2.17;;;14.40;99.90;;;;;;5046552;28;20510;-71
2022/09/15 00:58:18;;;;;;;3.00;2.53;;;14.50;99.90;;;;;;5046161;28;20485;-71
2022/09/15 01:01:28;;;;;;;3.50;2.50;;;14.50;99.90;;;;;;5039788;28;20509;-71
2022/09/15 01:04:34;;;;;;;2.83;2.60;;;14.40;99.90;;;;;;5039195;28;20482;-71
2022/09/15 01:07:49;;;;;;;2.67;2.03;;;14.40;99.90;;;;;;5043892;28;20508;-71
2022/09/15 01:10:55;;;;;;;2.03;1.93;;;14.40;99.90;;;;;;5043353;28;21033;-71
2022/09/15 01:14:04;;;;;;;2.40;2.20;;;14.40;99.90;;;;;;5040263;28;20466;-71
2022/09/15 01:17:11;;;;;;;2.40;1.77;;;14.40;99.90;;;;;;5045189;28;20569;-71
2022/09/15 01:20:41;;;;;;;4.97;2.30;;;14.40;99.90;;;;;;5046828;28;21587;-71
2022/09/15 01:24:50;;;;;;;2.13;1.90;;;14.40;99.90;;;;;;5036689;28;20955;-71
2022/09/15 01:28:01;;;;;;;2.33;2.20;;;14.40;99.90;;;;;;5047466;28;20467;-71
2022/09/15 01:31:01;;;;;;;3.73;2.30;;;14.40;99.90;;;;;;5038136;28;20493;-71
2022/09/15 01:37:55;;;;;;;2.60;2.10;;;14.40;99.90;;;;;;5046884;28;20473;-71
2022/09/15 01:41:09;;;;;;;2.20;2.10;;;14.40;99.90;;;;;;5024921;28;20842;-71
2022/09/15 01:44:41;;;;;;;2.73;2.50;;;14.40;99.90;;;;;;5041293;28;21099;-70
2022/09/15 01:48:00;;;;;;;2.50;2.10;;;14.40;99.90;;;;;;5033986;28;20933;-71
2022/09/15 01:51:14;;;;;;;2.10;1.90;;;14.40;99.90;;;;;;5044047;28;20461;-71
2022/09/15 01:54:11;;;;;;;2.47;2.00;;;14.40;99.90;;;;;;5042333;28;20486;-71
2022/09/15 01:57:32;;;;;;;2.60;2.40;;;14.40;99.90;;;;;;5052197;28;20607;-71
2022/09/15 02:00:31;;;;;;;2.93;2.13;;;14.50;99.90;;;;;;5052661;28;20465;-71
2022/09/15 02:07:01;;;;;;;3.33;2.20;;;14.40;99.90;;;;;;5043495;28;20549;-71
2022/09/15 02:10:14;;;;;;;4.13;2.37;;;14.50;99.90;;;;;;5041770;28;20824;-71
2022/09/15 02:16:57;;;;;;;3.37;2.27;;;14.50;99.90;;;;;;5050520;28;20446;-71
2022/09/15 02:26:55;;;;;;;2.87;2.47;;;14.50;99.90;;;;;;5045962;28;20469;-71
2022/09/15 02:30:08;;;;;;;;;;;;;;;;;;;;;
2022/09/15 02:33:29;;;;;;;3.83;2.33;;;14.50;99.90;;;;;;5052725;28;20473;-71
2022/09/15 02:36:36;;;;;;;4.13;2.30;;;14.50;99.90;;;;;;5051960;28;20502;-71
2022/09/15 02:39:50;;;;;;;2.70;2.37;;;14.60;99.90;;;;;;5051069;28;20951;-71
2022/09/15 02:43:24;;;;;;;3.17;2.20;;;14.50;99.90;;;;;;5052803;28;20974;-71
2022/09/15 02:46:38;;;;;;;;;;;;;;;;;;;;;
2022/09/15 02:49:51;;;;;;;;;;;;;;;;;;;;;
2022/09/15 02:52:54;;;;;;;;;;;;;;;;;;;;;
2022/09/15 02:55:50;;;;;;;3.07;2.40;;;14.60;99.90;;;;;;5041074;28;20458;-71
2022/09/15 02:58:49;;;;;;;4.43;2.47;;;14.60;99.90;;;;;;5049946;28;20819;-71
2022/09/15 03:01:57;;;;;;;4.53;2.30;;;14.50;99.90;;;;;;5046454;28;20474;-71
2022/09/15 03:04:56;;;;;;;2.50;2.30;;;14.50;99.90;;;;;;5048889;28;20466;-71
2022/09/15 03:08:19;;;;;;;2.63;1.70;;;14.50;99.90;;;;;;5052481;28;20593;-71
2022/09/15 03:11:31;;;;;;;2.77;2.10;;;14.40;99.90;;;;;;5051374;28;20500;-71
2022/09/15 03:14:34;;;;;;;2.20;2.00;;;14.40;99.90;;;;;;5045199;28;20540;-71
2022/09/15 03:17:48;;;;;;;3.87;2.37;;;14.40;99.90;;;;;;5044547;28;20973;-71
2022/09/15 03:21:10;;;;;;;3.40;2.13;;;14.40;99.90;;;;;;5050684;28;20463;-71
2022/09/15 03:24:41;;;;;;;4.97;1.73;;;14.40;99.90;;;;;;5044913;28;20485;-71
2022/09/15 03:28:02;;;;;;;1.97;1.77;;;14.50;99.90;;;;;;5053526;28;20466;-71
2022/09/15 03:30:57;;;;;;;2.40;2.20;;;14.40;99.90;;;;;;5049954;28;20474;-71
2022/09/15 03:33:57;;;;;;;3.50;2.20;;;14.40;99.90;;;;;;5045447;28;20490;-71
2022/09/15 03:36:56;;;;;;;3.80;2.17;;;14.40;99.90;;;;;;5051750;28;20792;-71
2022/09/15 03:40:08;;;;;;;;;;;;;;;;;;;;;
2022/09/15 03:43:05;;;;;;;4.50;2.27;;;14.40;99.90;;;;;;5054499;28;20477;-71
2022/09/15 03:46:02;;;;;;;2.43;2.23;;;14.40;99.90;;;;;;5047859;28;21196;-71
2022/09/15 03:48:56;;;;;;;2.87;2.30;;;14.40;99.90;;;;;;5048606;28;20469;-71
2022/09/15 03:51:59;;;;;;;2.43;2.07;;;14.40;99.90;;;;;;5049385;28;20473;-71
2022/09/15 03:58:47;;;;;;;6.43;2.40;;;14.30;99.90;;;;;;5048282;28;20466;-71
2022/09/15 04:01:49;;;;;;;3.60;2.20;;;14.30;99.90;;;;;;5043721;28;20506;-71
2022/09/15 04:05:15;;;;;;;4.60;2.53;;;14.30;99.90;;;;;;5046312;28;20532;-71
2022/09/15 04:08:19;;;;;;;2.33;2.00;;;14.30;99.90;;;;;;5043004;28;20450;-71
2022/09/15 04:11:46;;;;;;;3.37;2.20;;;14.30;99.90;;;;;;5048001;28;20778;-71
2022/09/15 04:14:46;;;;;;;2.87;2.53;;;14.30;99.90;;;;;;5049171;28;20513;-71
2022/09/15 04:17:58;;;;;;;3.90;2.10;;;14.30;99.90;;;;;;5038376;28;20456;-71
2022/09/15 04:21:14;;;;;;;6.10;2.50;;;14.30;99.90;;;;;;5042249;28;20455;-71
2022/09/15 04:24:35;;;;;;;3.93;2.10;;;14.30;99.90;;;;;;5046883;28;20565;-71
2022/09/15 04:27:38;;;;;;;3.90;1.77;;;14.20;99.90;;;;;;5054895;28;20490;-71
2022/09/15 04:30:43;;;;;;;2.40;1.90;;;14.30;99.90;;;;;;5047166;28;20482;-71
2022/09/15 04:33:56;;;;;;;2.07;1.63;;;14.20;99.90;;;;;;5047173;28;20497;-71
2022/09/15 04:37:20;;;;;;;4.73;2.27;;;14.30;99.90;;;;;;5043469;28;20450;-71
2022/09/15 04:40:33;;;;;;;3.00;2.00;;;14.30;99.90;;;;;;5039833;28;21180;-71
2022/09/15 04:43:43;;;;;;;3.70;2.50;;;14.30;99.90;;;;;;5021423;28;20497;-71
2022/09/15 04:46:40;;;;;;;3.97;2.40;;;14.30;99.90;;;;;;5036512;28;20454;-71
2022/09/15 04:49:48;;;;;;;3.33;2.33;;;14.30;99.90;;;;;;5044767;28;20503;-71
2022/09/15 04:52:57;;;;;;;3.20;1.93;;;14.20;99.90;;;;;;5034039;28;21024;-71
2022/09/15 04:56:12;;;;;;;3.17;1.93;;;14.30;99.90;;;;;;5042339;28;20462;-71
2022/09/15 04:59:22;;;;;;;4.10;2.27;;;14.30;99.90;;;;;;5038276;28;20474;-71
2022/09/15 05:02:48;;;;;;;2.87;1.90;;;14.30;99.90;;;;;;5029881;28;20591;-71
2022/09/15 05:05:43;;;;;;;2.77;2.10;;;14.30;99.90;;;;;;5036392;28;20449;-72
2022/09/15 05:09:17;;;;;;;2.90;2.40;;;14.20;99.90;;;;;;5025562;28;20451;-71
2022/09/15 05:12:24;;;;;;;5.23;1.93;;;14.20;99.90;;;;;;5027797;28;21033;-71
2022/09/15 05:15:27;;;;;;;5.50;1.90;;;14.20;99.90;;;;;;5040177;28;20462;-71
2022/09/15 05:18:41;;;;;;;6.27;1.80;;;14.30;99.90;;;;;;5029433;28;20454;-71
2022/09/15 05:22:10;;;;;;;7.43;1.90;;;14.20;99.90;;;;;;5025670;28;21076;-71
2022/09/15 05:25:27;;;;;;;3.63;1.60;;;14.30;99.90;;;;;;5027259;28;20516;-71
2022/09/15 05:28:28;;;;;;;3.23;1.50;;;14.20;99.90;;;;;;5030309;28;20457;-71
2022/09/15 05:31:50;;;;;;;3.60;1.73;;;14.20;99.90;;;;;;5035725;28;20478;-71
2022/09/15 05:35:11;;;;;;;4.40;1.70;;;14.20;99.90;;;;;;5032013;28;20474;-71
2022/09/15 05:38:16;;;;;;;3.50;1.87;;;14.20;99.90;;;;;;5039787;28;21158;-71
2022/09/15 05:41:19;;;;;;;2.73;1.50;;;14.30;99.90;;;;;;5026121;28;21239;-71
2022/09/15 05:44:20;;;;;;;3.20;1.70;;;14.20;99.90;;;;;;5037493;28;20467;-70
2022/09/15 05:47:17;;;;;;;5.80;1.40;;;14.30;99.90;;;;;;5037348;28;20461;-72
2022/09/15 05:50:29;;;;;;;5.57;1.90;;;14.20;99.90;;;;;;5043587;28;20930;-73
2022/09/15 05:53:45;;;;;;;3.07;1.53;;;14.30;99.90;;;;;;5050785;28;20522;-73
2022/09/15 05:57:15;;;;;;;2.40;1.30;;;14.30;99.90;;;;;;5052890;28;20446;-70
2022/09/15 06:00:06;;;;;;;3.80;1.50;;;14.30;99.90;;;;;;5057437;28;21504;-73
2022/09/15 06:02:59;;;;;;;2.23;1.33;;;14.30;99.90;;;;;;5040711;28;20529;-73
2022/09/15 06:06:09;;;;;;;6.43;1.73;;;14.30;99.90;;;;;;5030462;28;20520;-73
2022/09/15 06:09:05;;;;;;;3.13;1.60;;;14.30;99.90;;;;;;5042216;28;20483;-73
2022/09/15 06:11:57;;;;;;;5.20;2.00;;;14.30;99.90;;;;;;5044896;28;21017;-73
2022/09/15 06:14:49;;;;;;;2.50;1.30;;;14.20;99.90;;;;;;5044603;28;20469;-72
2022/09/15 06:17:42;;;;;;;3.17;1.50;;;14.30;99.90;;;;;;5052691;28;20458;-71
2022/09/15 06:20:40;;;;;;;6.03;2.90;;;14.30;99.90;;;;;;5042237;28;20625;-72
2022/09/15 06:23:35;;;;;;;5.80;1.93;;;14.30;99.90;;;;;;5047506;28;20477;-71
2022/09/15 06:26:30;;;;;;;5.03;1.57;;;14.30;99.90;;;;;;5046640;28;21030;-72
2022/09/15 06:29:20;;;;;;;3.50;1.50;;;14.30;99.90;;;;;;5044680;28;20444;-71
2022/09/15 06:32:13;;;;;;;2.87;1.67;;;14.40;99.90;;;;;;5047272;28;20489;-70
2022/09/15 06:35:07;;;;;;;3.73;1.53;;;14.50;99.90;;;;;;5040929;28;20586;-70
2022/09/15 06:38:01;;;;;;;4.00;1.57;;;14.50;99.90;;;;;;5049473;28;20459;-70
2022/09/15 06:41:07;;;;;;;3.30;1.30;;;14.50;99.90;;;;;;5048837;28;20525;-70
2022/09/15 06:43:57;;;;;;;3.47;1.47;;;14.50;99.90;;;;;;5041191;28;20478;-72
2022/09/15 06:46:53;;;;;;;5.03;1.73;;;14.50;99.90;;;;;;5046958;28;20438;-71
2022/09/15 06:49:41;;;;;;;4.00;1.53;;;14.50;99.90;;;;;;5042164;28;20438;-72
2022/09/15 06:52:31;;;;;;;4.43;1.13;;;14.50;99.90;;;;;;5045046;28;20493;-72
2022/09/15 06:55:23;;;;;;;2.70;1.80;;;14.50;99.90;;;;;;5040573;28;20449;-72
2022/09/15 06:58:17;;;;;;;7.83;1.60;;;14.40;99.90;;;;;;5045789;28;20458;-72
2022/09/15 07:01:10;;;;;;;3.83;2.03;;;14.40;99.90;;;;;;5046121;28;21743;-71
2022/09/15 07:04:11;;;;;;;4.10;1.73;;;14.50;99.90;;;;;;5047369;28;20478;-71
2022/09/15 07:06:59;;;;;;;4.63;1.70;;;14.50;99.90;;;;;;5030245;28;20466;-71
2022/09/15 07:09:56;;;;;;;3.63;1.63;;;14.40;99.90;;;;;;5049098;28;20453;-71
2022/09/15 07:12:46;;;;;;;4.27;1.60;;;14.40;99.90;;;;;;5044116;28;20471;-72
2022/09/15 07:15:38;;;;;;;4.30;1.87;;;14.40;99.90;;;;;;5044799;28;20465;-72
2022/09/15 07:18:32;;;;;;;4.20;1.40;;;14.50;99.90;;;;;;5047906;28;20446;-72
2022/09/15 07:21:23;;;;;;;4.80;1.60;;;14.50;99.90;;;;;;5049840;28;20985;-72
2022/09/15 07:24:12;;;;;;;4.33;1.57;;;14.50;99.90;;;;;;5047684;28;21052;-72
2022/09/15 07:27:07;;;;;;;2.87;1.50;;;14.50;99.90;;;;;;5044127;28;20471;-72
2022/09/15 07:30:07;;;;;;;3.17;1.73;;;14.60;99.90;;;;;;5049724;28;20473;-72
2022/09/15 07:33:02;;;;;;;3.00;1.70;;;14.70;99.90;;;;;;5040535;28;20537;-71
2022/09/15 07:35:55;;;;;;;7.27;2.47;;;14.80;99.90;;;;;;5044372;28;20520;-72
2022/09/15 07:38:49;;;;;;;2.93;1.50;;;14.70;99.90;;;;;;5041935;28;20482;-71
2022/09/15 07:41:42;;;;;;;3.40;1.43;;;14.70;99.90;;;;;;5037647;28;20477;-72
2022/09/15 07:44:35;;;;;;;4.07;1.50;;;14.70;99.90;;;;;;5046447;28;20501;-71
2022/09/15 07:47:26;;;;;;;4.40;1.30;;;14.70;99.90;;;;;;5045143;28;20458;-71
2022/09/15 07:50:19;;;;;;;3.53;1.57;;;14.70;99.90;;;;;;5048913;28;20537;-72
2022/09/15 07:53:16;;;;;;;6.10;1.50;;;14.90;99.90;;;;;;5043224;28;20478;-72
2022/09/15 07:56:05;;;;;;;4.73;1.43;;;14.90;99.90;;;;;;5051643;28;21771;-72
2022/09/15 07:58:53;;;;;;;2.70;1.90;;;14.90;99.90;;;;;;5040089;28;20456;-71
2022/09/15 08:01:46;;;;;;;3.80;1.80;;;14.90;99.90;;;;;;5046615;28;20851;-72
2022/09/15 08:04:37;;;;;;;4.40;1.57;;;15.00;99.90;;;;;;5047390;28;20847;-72
2022/09/15 08:07:29;;;;;;;4.93;1.50;;;15.00;99.90;;;;;;5037339;28;20462;-72
2022/09/15 08:10:25;;;;;;;4.47;1.57;;;15.10;99.90;;;;;;5040789;28;20439;-72
2022/09/15 08:13:13;;;;;;;4.93;1.40;;;15.10;99.90;;;;;;5045211;28;20940;-71
2022/09/15 08:16:13;;;;;;;3.17;1.30;;;15.20;99.90;;;;;;5046509;28;20960;-72
2022/09/15 08:19:05;;;;;;;3.43;1.43;;;15.20;99.90;;;;;;5041827;28;20496;-71
2022/09/15 08:21:58;;;;;;;2.90;1.50;;;15.30;99.90;;;;;;5037751;28;20486;-72
2022/09/15 08:24:49;;;;;;;2.90;1.30;;;15.30;99.90;;;;;;5049825;28;20474;-71
2022/09/15 08:27:40;;;;;;;3.40;1.30;;;15.30;99.90;;;;;;5038164;28;20466;-71
2022/09/15 08:30:30;;;;;;;2.13;1.20;;;15.30;99.90;;;;;;5044003;28;20453;-72
2022/09/15 08:33:25;;;;;;;2.60;1.40;;;15.30;99.90;;;;;;5042143;28;20486;-72
2022/09/15 08:36:21;;;;;;;2.60;1.10;;;15.40;99.90;;;;;;5042592;28;20455;-72
2022/09/15 08:39:11;;;;;;;4.07;1.20;;;15.50;99.90;;;;;;5045002;28;20996;-72
2022/09/15 08:42:02;;;;;;;5.63;1.37;;;15.60;99.90;;;;;;5046262;28;21038;-72
2022/09/15 08:44:57;;;;;;;3.13;1.17;;;15.60;99.90;;;;;;5047367;28;20478;-72
2022/09/15 08:48:00;;;;;;;5.73;1.80;;;15.60;99.90;;;;;;5044366;28;20492;-72
2022/09/15 08:50:51;;;;;;;3.87;1.10;;;15.70;99.90;;;;;;5044138;28;20447;-72
2022/09/15 08:53:48;;;;;;;2.80;1.17;;;15.90;99.90;;;;;;5042538;28;20482;-72
2022/09/15 08:56:41;;;;;;;2.77;1.10;;;15.90;99.90;;;;;;5040444;28;20456;-71
2022/09/15 08:59:38;;;;;;;4.57;1.30;;;15.90;99.90;;;;;;5039336;28;20466;-72
2022/09/15 09:02:51;;;;;;;3.67;1.37;;;16.00;99.90;;;;;;5044834;28;20486;-72
2022/09/15 09:05:52;;;;;;;1.90;1.03;;;16.00;99.90;;;;;;5044991;28;20544;-72
2022/09/15 09:09:02;;;;;;;2.50;1.20;;;16.00;99.90;;;;;;5046129;28;20454;-72
2022/09/15 09:12:19;;;;;;;2.10;0.93;;;16.00;99.90;;;;;;5045887;28;20974;-72
2022/09/15 09:15:39;;;;;;;6.37;1.37;;;16.00;99.90;;;;;;5045499;28;20482;-72
2022/09/15 09:18:58;;;;;;;3.87;1.10;;;16.00;99.90;;;;;;5045966;28;20579;-72
2022/09/15 09:21:57;;;;;;;4.00;1.23;;;16.10;99.90;;;;;;5043917;28;20485;-72
2022/09/15 09:24:50;;;;;;;4.37;1.33;;;16.20;99.90;;;;;;5029750;28;20481;-72
2022/09/15 09:27:42;;;;;;;5.27;1.17;;;16.20;99.90;;;;;;5039993;28;20454;-72
2022/09/15 09:30:38;;;;;;;3.33;1.07;;;16.30;99.90;;;;;;5044269;28;20461;-71
2022/09/15 09:33:33;;;;;;;3.17;1.13;;;16.30;99.90;;;;;;5047959;28;20483;-72
2022/09/15 09:36:30;;;;;;;4.40;1.70;;;16.20;99.90;;;;;;5047028;28;20497;-72
2022/09/15 09:39:21;;;;;;;2.70;1.20;;;16.20;99.90;;;;;;5040918;28;20449;-72
2022/09/15 09:42:17;;;;;;;5.80;1.50;;;16.10;99.90;;;;;;5037208;28;20538;-72
2022/09/15 09:45:14;;;;;;;2.20;1.43;;;15.90;99.90;;;;;;5044900;28;20856;-72
2022/09/15 09:48:21;;;;;;;4.10;1.47;;;15.90;99.90;;;;;;5046400;28;20524;-72
2022/09/15 09:51:35;;;;;;;2.27;1.27;;;15.60;99.90;;;;;;5036496;28;20469;-72
2022/09/15 09:54:26;;;;;;;3.13;1.43;;;15.50;99.90;;;;;;5035427;28;20470;-72
2022/09/15 09:57:30;;;;;;;4.17;1.80;;;15.50;99.90;;;;;;5032105;28;20484;-71
2022/09/15 10:00:35;;;;;;;3.10;1.37;;;15.50;99.90;;;;;;5039507;28;20449;-72
2022/09/15 10:03:27;;;;;;;3.30;1.50;;;15.50;99.90;;;;;;5038830;28;20476;-72
2022/09/15 10:06:25;;;;;;;2.70;1.30;;;15.50;99.90;;;;;;5041804;28;20455;-72
2022/09/15 10:09:18;;;;;;;2.20;1.50;;;15.60;99.90;;;;;;5047151;28;20458;-72
2022/09/15 10:12:07;;;;;;;3.60;1.43;;;15.70;99.90;;;;;;5036813;28;21002;-72
2022/09/15 10:14:59;;;;;;;3.47;1.40;;;15.70;99.90;;;;;;5035991;28;20478;-72
2022/09/15 10:17:49;;;;;;;4.23;1.60;;;15.80;99.90;;;;;;5044955;28;20575;-71
2022/09/15 10:20:50;;;;;;;5.03;1.30;;;15.80;99.90;;;;;;5038590;28;20504;-72
2022/09/15 10:23:38;;;;;;;2.97;1.60;;;15.90;99.90;;;;;;5031710;28;20474;-72
2022/09/15 10:26:33;;;;;;;5.07;1.57;;;16.00;99.90;;;;;;5039120;28;20521;-71
2022/09/15 10:29:24;;;;;;;3.10;1.50;;;16.10;99.90;;;;;;5039332;28;20456;-72
2022/09/15 10:32:24;;;;;;;3.10;1.47;;;16.20;99.90;;;;;;5041988;28;20467;-72
2022/09/15 10:35:19;;;;;;;3.57;1.30;;;16.20;99.90;;;;;;5040302;28;20585;-72
2022/09/15 10:38:16;;;;;;;3.43;1.07;;;16.20;99.90;;;;;;5036589;28;20988;-72
2022/09/15 10:41:28;;;;;;;2.70;1.10;;;16.20;99.90;;;;;;5050551;28;20476;-72
2022/09/15 10:44:30;;;;;;;3.20;1.10;;;16.30;99.90;;;;;;5040467;28;20481;-72
2022/09/15 10:47:35;;;;;;;3.20;1.27;;;16.40;99.90;;;;;;5035377;28;20482;-72
2022/09/15 10:50:31;;;;;;;2.10;1.10;;;16.50;99.90;;;;;;5043057;28;20449;-71
2022/09/15 10:53:39;;;;;;;2.40;1.10;;;16.50;99.90;;;;;;5042008;28;20482;-72
2022/09/15 10:56:37;;;;;;;1.83;1.10;;;16.70;99.90;;;;;;5044192;28;21006;-73
2022/09/15 10:59:47;;;;;;;2.07;1.20;;;16.70;99.90;;;;;;5051889;28;20465;-72
2022/09/15 11:03:16;;;;;;;3.00;1.10;;;16.90;99.90;;;;;;5040223;28;20835;-72
2022/09/15 11:06:23;;;;;;;1.37;0.80;;;17.00;99.90;;;;;;5050605;28;20803;-73
2022/09/15 11:09:25;;;;;;;3.70;1.10;;;17.20;99.90;;;;;;5046135;28;20450;-73
2022/09/15 11:12:31;;;;;;;1.73;0.90;;;17.20;99.90;;;;;;5052238;28;20458;-73
2022/09/15 11:15:43;;;;;;;1.47;0.80;;;17.30;99.90;;;;;;5044595;28;20974;-72
2022/09/15 11:18:59;;;;;;;2.10;0.90;;;17.30;99.90;;;;;;5043293;28;20481;-73
2022/09/15 11:21:50;;;;;;;1.90;1.40;;;17.50;99.90;;;;;;5043636;28;20477;-73
2022/09/15 11:24:46;;;;;;;3.33;1.13;;;17.70;99.90;;;;;;5050134;28;20576;-72
2022/09/15 11:27:43;;;;;;;2.77;1.50;;;17.70;99.90;;;;;;5040572;28;20974;-73
2022/09/15 11:30:44;;;;;;;2.53;1.10;;;17.40;99.90;;;;;;5043221;28;21533;-73
2022/09/15 11:33:43;;;;;;;2.67;1.10;;;17.20;99.90;;;;;;5045246;28;22443;-72
2022/09/15 11:36:45;;;;;;;2.50;1.10;;;17.00;99.90;;;;;;5041538;28;22246;-72
2022/09/15 11:39:44;;;;;;;1.30;0.80;;;16.90;99.90;;;;;;5036546;28;20454;-73
2022/09/15 11:42:43;;;;;;;2.10;1.00;;;16.80;99.90;;;;;;5039178;28;20476;-72
2022/09/15 11:45:37;;;;;;;2.63;1.10;;;16.70;99.90;;;;;;5045525;28;20481;-73
2022/09/15 11:48:36;;;;;;;1.27;1.13;;;16.70;99.90;;;;;;5047253;28;20447;-73
2022/09/15 11:51:50;;;;;;;2.00;1.03;;;16.80;99.90;;;;;;5038483;28;20475;-73
2022/09/15 11:54:49;;;;;;;2.20;1.40;;;16.90;99.90;;;;;;5037995;28;20484;-73
2022/09/15 11:57:48;;;;;;;2.27;1.10;;;17.10;99.90;;;;;;5037635;28;20455;-73
2022/09/15 12:00:49;;;;;;;2.43;1.40;;;17.20;99.90;;;;;;5046948;28;20461;-73
2022/09/15 12:03:53;;;;;;;2.67;1.03;;;17.40;99.90;;;;;;5044494;28;20485;-72
2022/09/15 12:06:49;;;;;;;1.57;1.10;;;17.70;99.90;;;;;;5046764;27;20453;-73
2022/09/15 12:09:40;;;;;;;3.80;1.00;;;17.90;99.90;;;;;;5040640;28;20450;-73
2022/09/15 12:12:32;;;;;;;2.10;1.20;;;18.10;99.90;;;;;;5039167;28;20470;-72
2022/09/15 12:15:28;;;;;;;1.90;1.03;;;18.30;99.90;;;;;;5041658;28;20508;-72
2022/09/15 12:18:28;;;;;;;3.63;1.47;;;18.40;99.90;;;;;;5040819;28;20463;-72
2022/09/15 12:21:43;;;;;;;2.67;1.10;;;18.60;99.90;;;;;;5037011;28;20501;-72
2022/09/15 12:24:40;;;;;;;2.00;1.07;;;18.90;99.90;;;;;;5043291;28;20468;-72
2022/09/15 12:27:30;;;;;;;6.20;1.77;;;18.90;99.90;;;;;;5041325;28;20464;-72
2022/09/15 12:30:57;;;;;;;2.30;1.17;;;18.90;99.90;;;;;;5037316;28;20462;-71
2022/09/15 12:33:53;;;;;;;4.80;1.40;;;19.10;99.90;;;;;;5040895;28;21425;-73
2022/09/15 12:36:48;;;;;;;1.83;1.07;;;19.30;99.90;;;;;;5034177;28;20459;-72
2022/09/15 12:39:45;;;;;;;4.10;1.13;;;19.70;99.90;;;;;;5035216;28;20490;-73
2022/09/15 12:42:39;;;;;;;1.73;1.00;;;19.80;99.90;;;;;;5043429;28;20466;-71
2022/09/15 12:45:30;;;;;;;1.87;0.90;;;19.80;99.90;;;;;;5037961;28;20459;-72
2022/09/15 12:48:25;;;;;;;1.23;0.70;;;19.90;99.90;;;;;;5024629;28;20466;-72
2022/09/15 12:51:22;;;;;;;2.60;1.03;;;20.00;99.90;;;;;;5028575;28;21037;-72
2022/09/15 12:54:25;;;;;;;1.37;1.00;;;20.10;99.90;;;;;;5037657;28;20480;-72
2022/09/15 12:57:25;;;;;;;1.93;0.80;;;20.60;99.90;;;;;;5035862;28;20450;-73
2022/09/15 13:00:32;;;;;;;2.60;0.90;;;21.00;99.90;;;;;;5041164;28;20463;-72
2022/09/15 13:04:25;;;;;;;2.87;0.90;;;21.30;99.90;;;;;;5027932;28;20493;-72
2022/09/15 13:07:37;;;;;;;2.30;0.87;;;21.90;99.90;;;;;;5045330;28;20454;-71
2022/09/15 13:10:35;;;;;;;2.23;0.90;;;22.00;99.90;;;;;;5046944;28;20462;-73
2022/09/15 13:13:30;;;;;;;1.77;0.80;;;22.30;99.90;;;;;;5033883;28;21037;-72
2022/09/15 13:16:30;;;;;;;3.70;1.60;;;22.50;99.90;;;;;;5031776;28;20993;-72
2022/09/15 13:19:24;;;;;;;3.03;1.00;;;22.20;99.90;;;;;;5043220;28;20457;-72
2022/09/15 13:22:28;;;;;;;2.23;1.00;;;22.20;99.90;;;;;;5045956;28;21004;-72
2022/09/15 13:25:25;;;;;;;2.50;1.10;;;21.50;99.90;;;;;;5050523;28;20981;-72
2022/09/15 13:28:20;;;;;;;1.20;1.10;;;20.90;99.90;;;;;;5039537;28;20474;-72
2022/09/15 13:31:19;;;;;;;1.43;1.10;;;20.60;99.90;;;;;;5032425;28;20552;-71
2022/09/15 13:34:35;;;;;;;2.67;1.20;;;20.10;99.90;;;;;;5032402;28;20474;-72
2022/09/15 13:38:16;;;;;;;1.13;1.00;;;19.80;99.90;;;;;;4972344;28;20454;-73
2022/09/15 13:41:38;;;;;;;1.53;1.10;;;19.30;99.90;;;;;;5036673;28;20474;-72
2022/09/15 13:44:58;;;;;;;2.50;1.30;;;18.90;99.90;;;;;;5001431;28;20861;-72
2022/09/15 13:47:59;;;;;;;2.13;1.20;;;18.70;99.90;;;;;;5036892;28;20458;-71
2022/09/15 13:51:00;;;;;;;1.60;1.00;;;18.40;99.90;;;;;;5043450;28;20593;-72
2022/09/15 13:54:00;;;;;;;2.10;1.00;;;18.20;99.90;;;;;;5049335;28;20462;-72
2022/09/15 13:56:55;;;;;;;2.60;1.37;;;18.00;99.90;;;;;;5031080;28;20450;-72
2022/09/15 13:59:43;;;;;;;1.90;1.20;;;18.00;99.90;;;;;;5035572;28;20455;-72
2022/09/15 14:02:43;;;;;;;1.30;1.03;;;18.00;99.90;;;;;;5040786;28;20505;-72
2022/09/15 14:05:43;;;;;;;2.20;1.27;;;18.10;99.90;;;;;;5021316;28;20455;-72
2022/09/15 14:08:35;;;;;;;5.70;1.17;;;18.10;99.90;;;;;;5042131;28;20890;-71
2022/09/15 14:11:35;;;;;;;2.53;1.27;;;18.10;99.90;;;;;;5054621;28;20985;-70
2022/09/15 14:14:37;;;;;;;2.00;1.30;;;18.30;99.90;;;;;;5041114;28;20490;-72
2022/09/15 14:17:28;;;;;;;1.90;1.10;;;18.30;99.90;;;;;;5044714;28;20454;-72
2022/09/15 14:20:27;;;;;;;2.13;1.40;;;18.30;99.90;;;;;;5042946;28;20515;-71
2022/09/15 14:23:19;;;;;;;2.07;1.10;;;18.30;99.90;;;;;;5050738;28;20494;-72
2022/09/15 14:26:14;;;;;;;2.20;1.23;;;18.20;99.90;;;;;;5046685;28;20575;-71
2022/09/15 14:29:18;;;;;;;2.53;0.97;;;18.30;99.90;;;;;;5035241;28;20450;-72
2022/09/15 14:32:12;;;;;;;3.67;1.27;;;18.30;99.90;;;;;;5037211;28;20821;-72
2022/09/15 14:35:08;;;;;;;2.57;1.40;;;18.10;99.90;;;;;;5045158;28;20475;-72
2022/09/15 14:38:02;;;;;;;4.90;1.40;;;18.10;99.90;;;;;;5042322;28;20456;-72
2022/09/15 14:40:55;;;;;;;2.80;1.47;;;18.10;99.90;;;;;;5046597;28;20447;-72
2022/09/15 14:43:48;;;;;;;4.27;1.33;;;18.20;99.90;;;;;;5048068;28;20510;-72
2022/09/15 14:46:37;;;;;;;3.93;1.43;;;18.00;99.90;;;;;;5046404;28;20837;-72
2022/09/15 14:49:28;;;;;;;1.77;1.33;;;17.70;99.90;;;;;;5048899;28;20454;-72
2022/09/15 14:52:26;;;;;;;2.43;1.40;;;17.20;99.90;;;;;;5048138;28;20469;-72
2022/09/15 14:55:22;;;;;;;2.70;1.23;;;17.10;99.90;;;;;;5040483;28;21274;-72
2022/09/15 14:58:21;;;;;;;2.60;1.00;;;16.90;99.90;;;;;;5040613;28;20470;-72
2022/09/15 15:01:15;;;;;;;1.33;1.10;;;16.80;99.90;;;;;;5039482;28;20462;-72
2022/09/15 15:04:15;;;;;;;2.03;1.00;;;16.70;99.90;;;;;;5044109;28;21048;-72
2022/09/15 15:07:13;;;;;;;2.23;1.20;;;16.60;99.90;;;;;;5042307;28;20823;-72
2022/09/15 15:10:16;;;;;;;1.83;1.00;;;16.60;99.90;;;;;;5031158;28;20593;-72
2022/09/15 15:13:16;;;;;;;2.10;1.00;;;16.50;99.90;;;;;;5039990;28;20497;-70
2022/09/15 15:16:20;;;;;;;1.20;1.10;;;16.50;99.90;;;;;;5047448;28;20467;-70
2022/09/15 15:19:31;;;;;;;3.20;1.20;;;16.60;99.90;;;;;;5052828;28;20450;-70
2022/09/15 15:22:25;;;;;;;1.50;1.20;;;16.60;99.90;;;;;;5033633;28;20529;-73
2022/09/15 15:25:23;;;;;;;2.03;1.20;;;16.60;99.90;;;;;;5049206;28;20493;-72
2022/09/15 15:28:35;;;;;;;1.90;1.00;;;16.50;99.90;;;;;;5045556;28;21344;-72
2022/09/15 15:31:30;;;;;;;2.27;1.10;;;16.40;99.90;;;;;;5050232;28;20465;-71
2022/09/15 15:34:29;;;;;;;3.27;1.53;;;16.30;99.90;;;;;;5042611;28;20560;-72
2022/09/15 15:37:27;;;;;;;2.37;1.30;;;16.30;99.90;;;;;;5048192;28;20479;-72
2022/09/15 15:40:21;;;;;;;2.40;1.00;;;16.20;99.90;;;;;;5049567;28;20465;-72
2022/09/15 15:43:25;;;;;;;1.57;1.20;;;16.20;99.90;;;;;;5035576;28;21310;-71
2022/09/15 15:46:13;;;;;;;1.80;1.10;;;16.20;99.90;;;;;;5042648;28;20469;-71
2022/09/15 15:49:11;;;;;;;3.10;1.43;;;16.20;99.90;;;;;;5040563;28;20455;-72
2022/09/15 15:52:03;;;;;;;2.33;1.60;;;16.20;99.90;;;;;;5036392;28;20510;-72
2022/09/15 15:54:51;;;;;;;2.53;1.13;;;16.20;99.90;;;;;;5032544;28;20470;-71
2022/09/15 15:57:39;;;;;;;2.60;1.00;;;16.20;99.90;;;;;;5037831;28;20455;-72
2022/09/15 16:00:35;;;;;;;2.60;1.23;;;16.20;99.90;;;;;;5036078;28;20537;-72
2022/09/15 16:03:34;;;;;;;2.77;1.37;;;16.20;99.90;;;;;;5031938;28;20479;-73
2022/09/15 16:06:30;;;;;;;3.30;1.90;;;16.20;99.90;;;;;;5037796;28;20447;-72
2022/09/15 16:09:24;;;;;;;2.40;1.60;;;16.20;99.90;;;;;;5047317;28;21062;-72
2022/09/15 16:12:21;;;;;;;2.00;1.13;;;16.20;99.90;;;;;;5026081;28;20635;-72
2022/09/15 16:15:21;;;;;;;1.93;1.40;;;16.20;99.90;;;;;;5037304;28;20962;-72
2022/09/15 16:18:13;;;;;;;2.83;1.47;;;16.20;99.90;;;;;;5037303;28;20454;-71
2022/09/15 16:21:03;;;;;;;3.40;1.30;;;16.20;99.90;;;;;;5039217;28;20541;-72
2022/09/15 16:24:08;;;;;;;3.90;1.60;;;16.20;99.90;;;;;;5043727;28;20489;-72